createdAt,value
2023-11-23T00:00:49.699Z,72.04
2023-11-23T00:03:16.861Z,72.73
2023-11-23T00:05:43.828Z,73.27
2023-11-23T00:08:10.774Z,73.70
2023-11-23T00:10:37.745Z,73.51
2023-11-23T00:13:04.721Z,74.25
2023-11-23T00:15:31.824Z,73.96
2023-11-23T00:17:59.301Z,74.41
2023-11-23T00:20:26.272Z,74.37
2023-11-23T00:22:53.374Z,74.55
2023-11-23T00:25:20.320Z,75.11
2023-11-23T00:27:47.347Z,74.83
2023-11-23T00:30:14.889Z,74.69
2023-11-23T00:32:42.052Z,75.47
2023-11-23T00:35:09.601Z,75.49
2023-11-23T00:37:36.673Z,75.57
2023-11-23T00:40:04.402Z,76.23
2023-11-23T00:42:31.455Z,76.03
2023-11-23T00:44:58.494Z,76.31
2023-11-23T00:47:25.510Z,76.88
2023-11-23T00:49:52.492Z,77.33
2023-11-23T00:52:19.454Z,76.94
2023-11-23T00:54:48.735Z,77.97
2023-11-23T00:57:15.734Z,77.66
2023-11-23T00:59:42.835Z,78.71
2023-11-23T01:02:10.037Z,78.87
2023-11-23T01:04:38.974Z,79.03
2023-11-23T01:07:06.127Z,78.97
2023-11-23T01:09:33.135Z,79.83
2023-11-23T01:12:00.333Z,79.69
2023-11-23T01:14:27.320Z,79.67
2023-11-23T01:16:54.396Z,80.21
2023-11-23T01:19:21.447Z,80.54
2023-11-23T01:21:48.398Z,80.66
2023-11-23T01:24:15.376Z,81.43
2023-11-23T01:26:42.389Z,82.21
2023-11-23T01:29:10.479Z,82.44
2023-11-23T01:31:37.479Z,82.95
2023-11-23T01:34:05.203Z,82.97
2023-11-23T01:36:32.259Z,83.43
2023-11-23T01:38:59.232Z,83.79
2023-11-23T01:41:26.245Z,83.27
2023-11-23T01:43:53.292Z,84.07
2023-11-23T01:46:20.279Z,84.53
2023-11-23T01:48:49.517Z,84.27
2023-11-23T01:51:18.803Z,84.30
2023-11-23T01:53:46.028Z,85.32
2023-11-23T01:56:13.664Z,85.55
2023-11-23T01:58:40.684Z,85.84
2023-11-23T02:01:08.243Z,86.14
2023-11-23T02:03:35.613Z,86.80
2023-11-23T02:06:02.775Z,86.35
2023-11-23T02:08:29.785Z,87.28
2023-11-23T02:10:57.908Z,88.19
2023-11-23T02:13:25.973Z,88.53
2023-11-23T02:15:53.641Z,88.43
2023-11-23T02:18:20.900Z,89.03
2023-11-23T02:20:48.169Z,88.95
2023-11-23T02:23:15.211Z,89.30
2023-11-23T02:25:42.200Z,89.10
2023-11-23T02:28:09.731Z,88.65
2023-11-23T02:30:37.088Z,89.00
2023-11-23T02:33:05.420Z,89.20
2023-11-23T02:35:32.605Z,89.21
2023-11-23T02:37:59.624Z,89.13
2023-11-23T02:40:26.891Z,89.16
2023-11-23T02:42:53.964Z,89.50
2023-11-23T02:45:21.015Z,89.81
2023-11-23T02:47:48.071Z,90.14
2023-11-23T02:50:15.072Z,90.10
2023-11-23T02:52:42.083Z,89.81
2023-11-23T02:55:10.586Z,90.30
2023-11-23T02:57:37.472Z,90.53
2023-11-23T03:00:05.753Z,91.17
2023-11-23T03:02:32.895Z,90.53
2023-11-23T03:04:59.960Z,91.75
2023-11-23T03:07:26.914Z,90.88
2023-11-23T03:09:53.920Z,91.23
2023-11-23T03:12:20.954Z,91.03
2023-11-23T03:14:48.019Z,91.13
2023-11-23T03:17:15.280Z,91.60
2023-11-23T03:19:42.202Z,91.93
2023-11-23T03:22:09.473Z,91.79
2023-11-23T03:24:36.566Z,92.83
2023-11-23T03:27:03.781Z,92.31
2023-11-23T03:29:30.782Z,93.19
2023-11-23T03:31:57.826Z,92.69
2023-11-23T03:34:25.305Z,93.15
2023-11-23T03:36:52.291Z,93.61
2023-11-23T03:39:20.022Z,93.32
2023-11-23T03:41:48.929Z,93.11
2023-11-23T03:44:15.983Z,92.71
2023-11-23T03:46:43.294Z,92.47
2023-11-23T03:49:10.418Z,92.72
2023-11-23T03:51:37.995Z,92.24
2023-11-23T03:54:05.472Z,92.49
2023-11-23T03:56:32.760Z,92.80
2023-11-23T03:58:59.705Z,92.64
2023-11-23T04:01:26.698Z,92.46
2023-11-23T04:03:53.856Z,92.33
2023-11-23T04:06:20.951Z,92.31
2023-11-23T04:08:49.392Z,92.44
2023-11-23T04:11:16.639Z,92.16
2023-11-23T04:13:43.729Z,91.86
2023-11-23T04:16:10.797Z,92.09
2023-11-23T04:18:37.895Z,92.29
2023-11-23T04:21:05.515Z,92.48
2023-11-23T04:23:32.755Z,91.84
2023-11-23T04:25:59.788Z,92.91
2023-11-23T04:28:27.383Z,91.75
2023-11-23T04:30:55.102Z,92.07
2023-11-23T04:33:24.634Z,92.57
2023-11-23T04:35:51.833Z,91.86
2023-11-23T04:38:18.793Z,91.60
2023-11-23T04:40:45.754Z,92.14
2023-11-23T04:43:13.640Z,91.92
2023-11-23T04:45:41.199Z,91.58
2023-11-23T04:48:08.547Z,91.41
2023-11-23T04:50:38.244Z,91.72
2023-11-23T04:53:05.277Z,91.66
2023-11-23T04:55:33.594Z,91.11
2023-11-23T04:58:00.555Z,91.37
2023-11-23T05:00:27.639Z,91.76
2023-11-23T05:02:56.105Z,91.49
2023-11-23T05:05:23.198Z,90.93
2023-11-23T05:07:50.464Z,91.29
2023-11-23T05:10:18.780Z,91.54
2023-11-23T05:12:45.749Z,90.89
2023-11-23T05:15:12.742Z,90.75
2023-11-23T05:17:39.797Z,91.04
2023-11-23T05:20:07.561Z,91.09
2023-11-23T05:22:34.483Z,91.14
2023-11-23T05:25:01.499Z,90.70
2023-11-23T05:27:28.496Z,91.54
2023-11-23T05:29:55.520Z,91.58
2023-11-23T05:32:22.650Z,90.75
2023-11-23T05:34:49.659Z,91.13
2023-11-23T05:37:16.938Z,91.00
2023-11-23T05:39:44.725Z,91.00
2023-11-23T05:42:12.463Z,91.35
2023-11-23T05:44:41.768Z,91.17
2023-11-23T05:47:09.004Z,90.90
2023-11-23T05:49:35.978Z,90.58
2023-11-23T05:52:03.069Z,90.30
2023-11-23T05:54:30.020Z,90.51
2023-11-23T05:56:56.934Z,90.67
2023-11-23T05:59:23.881Z,89.83
2023-11-23T06:01:51.828Z,89.86
2023-11-23T06:04:19.036Z,89.75
2023-11-23T06:06:46.174Z,89.58
2023-11-23T06:09:13.229Z,89.78
2023-11-23T06:11:40.274Z,89.32
2023-11-23T06:14:07.336Z,89.37
2023-11-23T06:16:35.111Z,89.15
2023-11-23T06:19:04.074Z,89.51
2023-11-23T06:21:32.542Z,89.40
2023-11-23T06:24:00.746Z,89.51
2023-11-23T06:26:28.828Z,89.10
2023-11-23T06:28:55.785Z,89.19
2023-11-23T06:31:22.819Z,89.47
2023-11-23T06:33:49.984Z,89.23
2023-11-23T06:36:17.786Z,89.22
2023-11-23T06:38:44.978Z,89.00
2023-11-23T06:41:22.980Z,89.32
2023-11-23T06:43:51.746Z,89.18
2023-11-23T06:46:20.794Z,89.01
2023-11-23T06:48:48.059Z,88.63
2023-11-23T06:51:15.263Z,88.64
2023-11-23T06:53:46.473Z,88.31
2023-11-23T06:56:18.004Z,88.49
2023-11-23T06:58:49.401Z,89.06
2023-11-23T07:01:17.286Z,88.85
2023-11-23T07:03:45.697Z,89.07
2023-11-23T07:06:12.920Z,88.43
2023-11-23T07:08:41.787Z,88.39
2023-11-23T07:11:09.325Z,89.00
2023-11-23T07:13:37.107Z,88.97
2023-11-23T07:16:06.244Z,88.56
2023-11-23T07:18:33.519Z,88.63
2023-11-23T07:21:00.831Z,88.58
2023-11-23T07:23:27.967Z,89.18
2023-11-23T07:25:54.979Z,88.87
2023-11-23T07:28:28.774Z,88.82
2023-11-23T07:30:57.887Z,88.81
2023-11-23T07:33:31.066Z,88.96
2023-11-23T07:35:58.132Z,88.98
2023-11-23T07:38:25.367Z,88.22
2023-11-23T07:40:52.345Z,88.75
2023-11-23T07:43:19.533Z,88.40
2023-11-23T07:45:46.437Z,88.70
2023-11-23T07:48:15.590Z,88.50
2023-11-23T07:50:44.621Z,88.19
2023-11-23T07:53:11.892Z,88.04
2023-11-23T07:55:38.942Z,88.24
2023-11-23T07:58:06.130Z,88.58
2023-11-23T08:00:33.319Z,88.78
2023-11-23T08:03:00.836Z,88.25
2023-11-23T08:05:28.097Z,88.18
2023-11-23T08:07:55.164Z,88.66
2023-11-23T08:10:22.093Z,88.46
2023-11-23T08:12:49.187Z,88.07
2023-11-23T08:15:16.646Z,88.37
2023-11-23T08:20:15.360Z,88.03
2023-11-23T08:22:42.463Z,88.59
2023-11-23T08:25:10.334Z,88.27
2023-11-23T08:27:39.250Z,88.90
2023-11-23T08:30:07.795Z,87.82
2023-11-23T08:32:34.827Z,88.24
2023-11-23T08:35:02.763Z,87.96
2023-11-23T08:37:29.862Z,88.25
2023-11-23T08:39:57.096Z,87.47
2023-11-23T08:42:24.284Z,87.46
2023-11-23T08:44:51.518Z,87.28
2023-11-23T08:47:18.673Z,87.39
2023-11-23T08:49:45.697Z,87.17
2023-11-23T08:52:12.877Z,87.65
2023-11-23T08:54:39.802Z,87.19
2023-11-23T08:57:10.530Z,87.10
2023-11-23T08:59:38.935Z,86.79
2023-11-23T09:02:17.259Z,87.18
2023-11-23T09:04:48.050Z,87.27
2023-11-23T09:07:15.100Z,86.51
2023-11-23T09:09:42.090Z,86.25
2023-11-23T09:12:09.274Z,86.50
2023-11-23T09:14:46.554Z,86.80
2023-11-23T09:17:17.850Z,86.36
2023-11-23T09:19:46.647Z,86.41
2023-11-23T09:22:14.700Z,86.88
2023-11-23T09:24:41.674Z,86.22
2023-11-23T09:27:09.208Z,86.11
2023-11-23T09:29:36.299Z,86.23
2023-11-23T09:32:04.665Z,86.48
2023-11-23T09:34:31.767Z,86.43
2023-11-23T09:36:58.850Z,86.12
2023-11-23T09:39:25.822Z,86.49
2023-11-23T09:41:55.259Z,86.31
2023-11-23T09:44:23.658Z,86.68
2023-11-23T09:46:54.343Z,86.71
2023-11-23T09:49:22.596Z,86.48
2023-11-23T09:51:57.154Z,86.69
2023-11-23T09:54:28.060Z,85.90
2023-11-23T09:56:56.454Z,86.37
2023-11-23T09:59:25.359Z,85.92
2023-11-23T10:01:56.268Z,85.47
2023-11-23T10:04:23.478Z,85.64
2023-11-23T10:06:51.526Z,86.18
2023-11-23T10:09:19.291Z,85.66
2023-11-23T10:11:48.436Z,85.87
2023-11-23T10:14:17.313Z,86.21
2023-11-23T10:16:44.596Z,85.80
2023-11-23T10:19:22.434Z,85.41
2023-11-23T10:21:50.305Z,85.90
2023-11-23T10:24:18.089Z,85.60
2023-11-23T10:26:45.191Z,86.47
2023-11-23T10:29:13.078Z,86.52
2023-11-23T10:31:40.306Z,86.89
2023-11-23T10:34:09.454Z,86.57
2023-11-23T10:36:44.913Z,86.94
2023-11-23T10:39:17.670Z,87.14
2023-11-23T10:41:47.844Z,86.96
2023-11-23T10:44:16.726Z,87.13
2023-11-23T10:46:45.679Z,86.96
2023-11-23T10:49:15.603Z,86.96
2023-11-23T10:51:45.241Z,86.74
2023-11-23T10:54:12.306Z,87.17
2023-11-23T10:56:44.863Z,86.82
2023-11-23T10:59:22.163Z,86.94
2023-11-23T11:01:57.595Z,86.47
2023-11-23T11:04:24.788Z,86.08
2023-11-23T11:06:56.500Z,86.19
2023-11-23T11:09:30.404Z,85.81
2023-11-23T11:12:02.204Z,86.27
2023-11-23T11:14:37.662Z,86.10
2023-11-23T11:17:07.569Z,86.09
2023-11-23T11:19:47.037Z,86.56
2023-11-23T11:22:15.373Z,86.83
2023-11-23T11:24:46.619Z,86.32
2023-11-23T11:27:14.354Z,86.26
2023-11-23T11:29:52.910Z,86.22
2023-11-23T11:32:22.957Z,85.99
2023-11-23T11:35:02.350Z,86.50
2023-11-23T11:37:34.790Z,85.86
2023-11-23T11:40:02.154Z,86.62
2023-11-23T11:42:31.562Z,85.85
2023-11-23T11:44:59.427Z,85.88
2023-11-23T11:47:27.588Z,86.05
2023-11-23T11:49:57.080Z,85.91
2023-11-23T11:52:24.089Z,86.15
2023-11-23T11:54:52.305Z,85.86
2023-11-23T11:57:19.927Z,85.46
2023-11-23T11:59:48.117Z,85.70
2023-11-23T12:02:16.035Z,85.56
2023-11-23T12:04:43.311Z,85.43
2023-11-23T12:07:15.897Z,85.14
2023-11-23T12:09:46.829Z,85.08
2023-11-23T12:12:14.780Z,84.53
2023-11-23T12:14:42.101Z,84.75
2023-11-23T12:17:14.556Z,85.06
2023-11-23T12:21:01.497Z,84.68
2023-11-23T12:23:30.295Z,84.56
2023-11-23T12:25:57.350Z,83.88
2023-11-23T12:28:24.663Z,84.34
2023-11-23T12:30:51.829Z,83.92
2023-11-23T12:33:19.261Z,83.51
2023-11-23T12:35:46.475Z,83.63
2023-11-23T12:38:13.481Z,83.81
2023-11-23T12:40:40.592Z,83.62
2023-11-23T12:43:07.609Z,83.44
2023-11-23T12:45:37.423Z,83.61
2023-11-23T12:48:07.799Z,83.79
2023-11-23T12:50:34.835Z,83.60
2023-11-23T12:53:01.778Z,83.02
2023-11-23T12:55:28.667Z,83.10
2023-11-23T12:57:56.106Z,82.75
2023-11-23T13:00:24.022Z,83.10
2023-11-23T13:02:51.087Z,83.15
2023-11-23T13:05:19.167Z,82.68
2023-11-23T13:07:46.186Z,82.37
2023-11-23T13:10:17.257Z,82.47
2023-11-23T13:12:44.468Z,82.66
2023-11-23T13:15:13.669Z,82.67
2023-11-23T13:17:42.411Z,82.12
2023-11-23T13:20:11.017Z,82.79
2023-11-23T13:22:38.332Z,82.59
2023-11-23T13:25:06.981Z,82.52
2023-11-23T13:27:34.055Z,82.03
2023-11-23T13:30:01.146Z,82.70
2023-11-23T13:32:28.405Z,81.84
2023-11-23T13:34:56.383Z,82.27
2023-11-23T13:37:23.616Z,82.12
2023-11-23T13:39:50.647Z,82.13
2023-11-23T13:42:18.962Z,81.90
2023-11-23T13:44:48.805Z,82.09
2023-11-23T13:47:15.908Z,81.68
2023-11-23T13:49:44.291Z,81.58
2023-11-23T13:52:11.614Z,82.14
2023-11-23T13:54:39.113Z,81.26
2023-11-23T13:57:07.425Z,81.39
2023-11-23T13:59:35.682Z,81.57
2023-11-23T14:02:04.164Z,81.63
2023-11-23T14:04:32.855Z,82.08
2023-11-23T14:07:00.403Z,82.24
2023-11-23T14:09:29.942Z,81.64
2023-11-23T14:11:57.087Z,81.94
2023-11-23T14:14:23.980Z,81.28
2023-11-23T14:16:50.883Z,81.87
2023-11-23T14:19:18.558Z,82.12
2023-11-23T14:21:47.973Z,81.54
2023-11-23T14:24:16.694Z,81.54
2023-11-23T14:26:43.955Z,82.04
2023-11-23T14:29:12.566Z,80.96
2023-11-23T14:31:39.605Z,81.47
2023-11-23T14:34:07.267Z,81.55
2023-11-23T14:36:34.378Z,82.17
2023-11-23T14:39:01.883Z,81.18
2023-11-23T14:41:28.917Z,81.62
2023-11-23T14:43:56.024Z,81.65
2023-11-23T14:46:23.120Z,81.71
2023-11-23T14:48:50.158Z,81.88
2023-11-23T14:51:17.639Z,81.70
2023-11-23T14:53:44.631Z,81.62
2023-11-23T14:56:11.525Z,81.20
2023-11-23T14:58:38.681Z,81.08
2023-11-23T15:01:05.716Z,81.61
2023-11-23T15:03:33.023Z,81.76
2023-11-23T15:06:00.815Z,81.26
2023-11-23T15:08:27.729Z,82.03
2023-11-23T15:10:55.246Z,81.66
2023-11-23T15:13:26.437Z,81.35
2023-11-23T15:16:00.256Z,81.54
2023-11-23T15:18:27.309Z,82.39
2023-11-23T15:20:54.271Z,82.21
2023-11-23T15:23:21.680Z,83.34
2023-11-23T15:25:49.116Z,83.68
2023-11-23T15:28:16.210Z,83.97
2023-11-23T15:30:43.404Z,85.49
2023-11-23T15:33:11.635Z,86.19
2023-11-23T15:35:42.546Z,86.77
2023-11-23T15:38:09.519Z,87.60
2023-11-23T15:40:37.286Z,87.62
2023-11-23T15:43:04.428Z,87.87
2023-11-23T15:45:31.948Z,87.99
2023-11-23T15:47:58.935Z,88.96
2023-11-23T15:50:29.381Z,89.03
2023-11-23T15:52:58.528Z,89.10
2023-11-23T15:55:25.581Z,90.23
2023-11-23T15:57:53.178Z,89.73
2023-11-23T16:00:25.580Z,90.17
2023-11-23T16:02:55.042Z,89.52
2023-11-23T16:05:28.863Z,89.58
2023-11-23T16:07:56.688Z,89.39
2023-11-23T16:10:23.852Z,88.92
2023-11-23T16:12:50.848Z,88.80
2023-11-23T16:15:18.069Z,88.65
2023-11-23T16:17:45.627Z,88.50
2023-11-23T16:20:16.692Z,88.73
2023-11-23T16:22:45.872Z,88.45
2023-11-23T16:25:12.925Z,87.65
2023-11-23T16:27:40.578Z,87.69
2023-11-23T16:30:13.403Z,87.13
2023-11-23T16:32:41.720Z,86.88
2023-11-23T16:35:12.528Z,86.97
2023-11-23T16:37:39.781Z,86.31
2023-11-23T16:40:12.131Z,86.53
2023-11-23T16:42:43.256Z,85.78
2023-11-23T16:45:12.025Z,86.29
2023-11-23T16:47:40.327Z,85.82
2023-11-23T16:50:11.440Z,86.31
2023-11-23T16:52:38.470Z,87.69
2023-11-23T16:55:07.434Z,88.01
2023-11-23T16:57:34.650Z,88.04
2023-11-23T17:00:01.917Z,88.08
2023-11-23T17:02:28.994Z,88.53
2023-11-23T17:04:57.104Z,89.16
2023-11-23T17:07:25.483Z,88.43
2023-11-23T17:09:54.245Z,89.17
2023-11-23T17:12:21.203Z,89.89
2023-11-23T17:14:48.157Z,90.16
2023-11-23T17:17:15.037Z,89.39
2023-11-23T17:19:43.863Z,89.57
2023-11-23T17:22:10.832Z,89.72
2023-11-23T17:24:37.867Z,89.82
2023-11-23T17:27:05.611Z,90.39
2023-11-23T17:29:32.535Z,90.32
2023-11-23T17:31:59.469Z,89.87
2023-11-23T17:34:27.465Z,90.28
2023-11-23T17:36:54.470Z,90.66
2023-11-23T17:39:23.646Z,91.03
2023-11-23T17:41:52.062Z,91.43
2023-11-23T17:44:19.815Z,91.83
2023-11-23T17:46:46.905Z,92.06
2023-11-23T17:49:17.336Z,92.34
2023-11-23T17:51:44.864Z,91.96
2023-11-23T17:54:12.953Z,92.58
2023-11-23T17:56:41.452Z,92.40
2023-11-23T17:59:25.208Z,92.41
2023-11-23T18:01:59.067Z,92.63
2023-11-23T18:04:27.642Z,92.96
2023-11-23T18:06:55.653Z,92.18
2023-11-23T18:09:22.814Z,92.47
2023-11-23T18:11:50.115Z,92.89
2023-11-23T18:14:17.434Z,92.85
2023-11-23T18:16:45.287Z,92.25
2023-11-23T18:19:12.332Z,92.33
2023-11-23T18:21:39.926Z,92.30
2023-11-23T18:24:06.963Z,92.64
2023-11-23T18:26:33.829Z,91.75
2023-11-23T18:29:00.761Z,91.68
2023-11-23T18:31:28.119Z,91.76
2023-11-23T18:33:55.103Z,91.61
2023-11-23T18:36:23.136Z,91.95
2023-11-23T18:38:50.059Z,92.60
2023-11-23T18:41:17.447Z,92.92
2023-11-23T18:43:44.424Z,92.95
2023-11-23T18:46:13.620Z,93.27
2023-11-23T18:48:40.676Z,93.99
2023-11-23T18:51:08.821Z,93.06
2023-11-23T18:53:35.749Z,92.91
2023-11-23T18:56:04.819Z,93.30
2023-11-23T18:58:31.738Z,94.01
2023-11-23T19:01:00.723Z,93.81
2023-11-23T19:03:28.199Z,93.97
2023-11-23T19:05:59.706Z,94.07
2023-11-23T19:08:26.748Z,94.26
2023-11-23T19:10:53.876Z,94.05
2023-11-23T19:13:21.415Z,94.03
2023-11-23T19:15:49.668Z,94.06
2023-11-23T19:18:17.894Z,94.50
2023-11-23T19:20:45.231Z,94.30
2023-11-23T19:23:13.410Z,93.56
2023-11-23T19:25:40.740Z,93.50
2023-11-23T19:28:08.258Z,93.39
2023-11-23T19:30:35.710Z,93.45
2023-11-23T19:33:06.607Z,93.47
2023-11-23T19:35:35.724Z,93.57
2023-11-23T19:38:05.363Z,93.10
2023-11-23T19:40:32.939Z,93.35
2023-11-23T19:43:00.741Z,93.39
2023-11-23T19:45:28.611Z,93.80
2023-11-23T19:47:56.232Z,93.77
2023-11-23T19:50:23.650Z,93.40
2023-11-23T19:52:55.303Z,93.27
2023-11-23T19:55:22.183Z,93.67
2023-11-23T19:57:49.171Z,93.29
2023-11-23T20:00:17.305Z,92.68
2023-11-23T20:02:45.062Z,93.08
2023-11-23T20:05:12.259Z,93.03
2023-11-23T20:07:39.252Z,92.97
2023-11-23T20:10:08.146Z,93.72
2023-11-23T20:12:35.269Z,93.42
2023-11-23T20:15:03.015Z,93.32
2023-11-23T20:17:29.958Z,92.99
2023-11-23T20:19:56.927Z,93.39
2023-11-23T20:22:23.893Z,93.74
2023-11-23T20:24:50.882Z,93.62
2023-11-23T20:27:17.967Z,94.23
2023-11-23T20:29:45.111Z,93.92
2023-11-23T20:32:12.228Z,94.24
2023-11-23T20:34:39.828Z,94.18
2023-11-23T20:37:06.769Z,94.23
2023-11-23T20:39:34.191Z,94.54
2023-11-23T20:42:01.179Z,94.32
2023-11-23T20:44:28.129Z,94.08
2023-11-23T20:46:57.492Z,94.20
2023-11-23T20:49:26.394Z,93.52
2023-11-23T20:51:54.087Z,93.86
2023-11-23T20:54:21.180Z,93.40
2023-11-23T20:56:48.709Z,93.02
2023-11-23T20:59:15.931Z,92.70
2023-11-23T21:01:43.329Z,93.42
2023-11-23T21:04:14.716Z,93.87
2023-11-23T21:06:53.130Z,94.07
2023-11-23T21:09:26.370Z,94.17
2023-11-23T21:11:56.292Z,93.81
2023-11-23T21:14:24.836Z,94.22
2023-11-23T21:16:51.918Z,93.75
2023-11-23T21:19:19.001Z,93.98
2023-11-23T21:21:46.131Z,86.21
2023-11-23T21:24:14.482Z,91.03
2023-11-23T21:26:42.165Z,91.02
2023-11-23T21:29:10.861Z,90.76
2023-11-23T21:31:38.009Z,91.12
2023-11-23T21:34:05.210Z,91.13
2023-11-23T21:36:36.050Z,91.60
2023-11-23T21:39:03.097Z,91.21
2023-11-23T21:41:30.308Z,91.05
2023-11-23T21:43:57.231Z,91.00
2023-11-23T21:46:25.991Z,91.24
2023-11-23T21:48:53.964Z,92.49
2023-11-23T21:51:29.208Z,92.41
2023-11-23T21:53:58.166Z,91.99
2023-11-23T21:56:25.235Z,91.95
2023-11-23T21:58:52.225Z,91.54
2023-11-23T22:01:19.268Z,91.58
2023-11-23T22:03:50.790Z,92.32
2023-11-23T22:06:19.002Z,91.82
2023-11-23T22:08:45.901Z,91.76
2023-11-23T22:11:13.965Z,91.29
2023-11-23T22:13:41.540Z,91.48
2023-11-23T22:16:08.456Z,90.81
2023-11-23T22:18:36.280Z,90.33
2023-11-23T22:21:05.793Z,89.22
2023-11-23T22:23:34.082Z,89.60
2023-11-23T22:26:02.177Z,88.77
2023-11-23T22:28:29.619Z,89.36
2023-11-23T22:30:57.197Z,89.39
2023-11-23T22:33:25.683Z,89.31
2023-11-23T22:35:52.818Z,89.52
2023-11-23T22:38:19.983Z,90.06
2023-11-23T22:40:47.263Z,89.23
2023-11-23T22:43:14.893Z,89.37
2023-11-23T22:45:42.029Z,89.38
2023-11-23T22:48:08.960Z,89.70
2023-11-23T22:50:35.880Z,90.12
2023-11-23T22:53:02.758Z,90.89
2023-11-23T22:55:29.698Z,91.63
2023-11-23T22:57:56.801Z,91.11
2023-11-23T23:00:27.861Z,91.75
2023-11-23T23:02:55.668Z,91.38
2023-11-23T23:05:22.698Z,91.38
2023-11-23T23:07:50.259Z,91.82
2023-11-23T23:10:17.825Z,91.89
2023-11-23T23:12:44.770Z,91.90
2023-11-23T23:15:11.671Z,92.66
2023-11-23T23:17:38.582Z,92.07
2023-11-23T23:20:07.445Z,91.30
2023-11-23T23:22:34.604Z,91.33
2023-11-23T23:25:03.403Z,90.13
2023-11-23T23:27:30.319Z,89.98
2023-11-23T23:29:57.344Z,90.51
2023-11-23T23:32:25.017Z,90.02
2023-11-23T23:34:52.554Z,89.75
2023-11-23T23:37:19.476Z,88.99
2023-11-23T23:39:46.372Z,88.72
2023-11-23T23:42:13.395Z,88.89
2023-11-23T23:44:40.310Z,88.05
2023-11-23T23:47:09.000Z,87.75
2023-11-23T23:49:37.563Z,86.39
2023-11-23T23:52:05.002Z,87.86
2023-11-23T23:54:31.917Z,87.00
2023-11-23T23:56:59.058Z,85.05
2023-11-23T23:59:26.264Z,83.20
